sensor_id;sensor_type;location;lat;lon;timestamp;P1;durP1;ratioP1;P2;durP2;ratioP2
20705;SDS011;10514;49.468;11.044;2023-04-27T00:02:00;6.73;;;2.63;;
20705;SDS011;10514;49.468;11.044;2023-04-27T00:04:26;5.07;;;3.03;;
20705;SDS011;10514;49.468;11.044;2023-04-27T00:06:52;6.10;;;2.90;;
20705;SDS011;10514;49.468;11.044;2023-04-27T00:09:18;9.80;;;3.37;;
20705;SDS011;10514;49.468;11.044;2023-04-27T00:11:44;5.07;;;2.40;;
20705;SDS011;10514;49.468;11.044;2023-04-27T00:14:10;5.27;;;2.73;;
20705;SDS011;10514;49.468;11.044;2023-04-27T00:16:36;6.33;;;3.07;;
20705;SDS011;10514;49.468;11.044;2023-04-27T00:19:02;4.10;;;3.10;;
20705;SDS011;10514;49.468;11.044;2023-04-27T00:21:29;4.43;;;2.93;;
20705;SDS011;10514;49.468;11.044;2023-04-27T00:23:55;6.17;;;3.73;;
20705;SDS011;10514;49.468;11.044;2023-04-27T00:26:21;6.50;;;3.60;;
20705;SDS011;10514;49.468;11.044;2023-04-27T00:28:47;5.23;;;2.90;;
20705;SDS011;10514;49.468;11.044;2023-04-27T00:31:13;6.93;;;3.00;;
20705;SDS011;10514;49.468;11.044;2023-04-27T00:33:39;6.87;;;2.73;;
20705;SDS011;10514;49.468;11.044;2023-04-27T00:36:05;6.40;;;3.17;;
20705;SDS011;10514;49.468;11.044;2023-04-27T00:38:31;5.57;;;3.53;;
20705;SDS011;10514;49.468;11.044;2023-04-27T00:41:04;10.33;;;3.60;;
20705;SDS011;10514;49.468;11.044;2023-04-27T00:43:30;11.90;;;3.43;;
20705;SDS011;10514;49.468;11.044;2023-04-27T00:45:56;6.77;;;3.67;;
20705;SDS011;10514;49.468;11.044;2023-04-27T00:48:22;9.83;;;4.13;;
20705;SDS011;10514;49.468;11.044;2023-04-27T00:50:49;7.17;;;3.40;;
20705;SDS011;10514;49.468;11.044;2023-04-27T00:53:15;9.23;;;3.93;;
20705;SDS011;10514;49.468;11.044;2023-04-27T00:55:41;9.33;;;4.17;;
20705;SDS011;10514;49.468;11.044;2023-04-27T00:58:07;7.60;;;3.50;;
20705;SDS011;10514;49.468;11.044;2023-04-27T01:00:36;4.93;;;2.90;;
20705;SDS011;10514;49.468;11.044;2023-04-27T01:03:03;6.53;;;3.60;;
20705;SDS011;10514;49.468;11.044;2023-04-27T01:05:29;6.70;;;3.63;;
20705;SDS011;10514;49.468;11.044;2023-04-27T01:07:55;6.90;;;3.53;;
20705;SDS011;10514;49.468;11.044;2023-04-27T01:10:21;7.23;;;3.77;;
20705;SDS011;10514;49.468;11.044;2023-04-27T01:12:47;5.00;;;3.57;;
20705;SDS011;10514;49.468;11.044;2023-04-27T01:15:13;6.83;;;4.27;;
20705;SDS011;10514;49.468;11.044;2023-04-27T01:17:39;7.87;;;3.90;;
20705;SDS011;10514;49.468;11.044;2023-04-27T01:20:07;8.57;;;3.50;;
20705;SDS011;10514;49.468;11.044;2023-04-27T01:22:33;4.67;;;3.00;;
20705;SDS011;10514;49.468;11.044;2023-04-27T01:24:59;6.63;;;3.40;;
20705;SDS011;10514;49.468;11.044;2023-04-27T01:27:25;8.10;;;3.47;;
20705;SDS011;10514;49.468;11.044;2023-04-27T01:29:51;6.47;;;3.40;;
20705;SDS011;10514;49.468;11.044;2023-04-27T01:32:17;6.80;;;3.90;;
20705;SDS011;10514;49.468;11.044;2023-04-27T01:34:43;6.97;;;3.87;;
20705;SDS011;10514;49.468;11.044;2023-04-27T01:37:09;9.10;;;3.97;;
20705;SDS011;10514;49.468;11.044;2023-04-27T01:39:35;6.57;;;3.57;;
20705;SDS011;10514;49.468;11.044;2023-04-27T01:42:01;9.20;;;3.07;;
20705;SDS011;10514;49.468;11.044;2023-04-27T01:44:27;9.23;;;3.07;;
20705;SDS011;10514;49.468;11.044;2023-04-27T01:46:53;4.87;;;2.93;;
20705;SDS011;10514;49.468;11.044;2023-04-27T01:49:19;5.17;;;2.70;;
20705;SDS011;10514;49.468;11.044;2023-04-27T01:51:45;5.27;;;2.07;;
20705;SDS011;10514;49.468;11.044;2023-04-27T01:54:11;4.80;;;2.83;;
20705;SDS011;10514;49.468;11.044;2023-04-27T01:56:37;6.03;;;2.40;;
20705;SDS011;10514;49.468;11.044;2023-04-27T01:59:03;5.30;;;2.90;;
20705;SDS011;10514;49.468;11.044;2023-04-27T02:01:29;4.87;;;3.00;;
20705;SDS011;10514;49.468;11.044;2023-04-27T02:03:55;4.33;;;2.60;;
20705;SDS011;10514;49.468;11.044;2023-04-27T02:06:21;4.23;;;2.67;;
20705;SDS011;10514;49.468;11.044;2023-04-27T02:08:47;6.60;;;2.93;;
20705;SDS011;10514;49.468;11.044;2023-04-27T02:11:13;4.80;;;2.70;;
20705;SDS011;10514;49.468;11.044;2023-04-27T02:13:39;5.07;;;3.13;;
20705;SDS011;10514;49.468;11.044;2023-04-27T02:16:05;6.07;;;2.93;;
20705;SDS011;10514;49.468;11.044;2023-04-27T02:18:31;4.83;;;3.00;;
20705;SDS011;10514;49.468;11.044;2023-04-27T02:20:57;5.03;;;3.00;;
20705;SDS011;10514;49.468;11.044;2023-04-27T02:23:23;6.07;;;2.77;;
20705;SDS011;10514;49.468;11.044;2023-04-27T02:25:49;5.47;;;2.40;;
20705;SDS011;10514;49.468;11.044;2023-04-27T02:28:15;6.17;;;2.97;;
20705;SDS011;10514;49.468;11.044;2023-04-27T02:30:41;6.87;;;2.63;;
20705;SDS011;10514;49.468;11.044;2023-04-27T02:33:07;6.20;;;2.97;;
20705;SDS011;10514;49.468;11.044;2023-04-27T02:35:33;6.63;;;3.27;;
20705;SDS011;10514;49.468;11.044;2023-04-27T02:37:59;3.83;;;2.40;;
20705;SDS011;10514;49.468;11.044;2023-04-27T02:40:25;5.57;;;2.93;;
20705;SDS011;10514;49.468;11.044;2023-04-27T02:42:51;5.37;;;2.73;;
20705;SDS011;10514;49.468;11.044;2023-04-27T02:45:17;5.60;;;2.87;;
20705;SDS011;10514;49.468;11.044;2023-04-27T02:47:43;4.73;;;2.83;;
20705;SDS011;10514;49.468;11.044;2023-04-27T02:50:09;5.80;;;3.00;;
20705;SDS011;10514;49.468;11.044;2023-04-27T02:52:37;4.70;;;3.07;;
20705;SDS011;10514;49.468;11.044;2023-04-27T02:55:03;4.57;;;2.50;;
20705;SDS011;10514;49.468;11.044;2023-04-27T02:57:29;6.63;;;3.27;;
20705;SDS011;10514;49.468;11.044;2023-04-27T02:59:55;4.33;;;2.73;;
20705;SDS011;10514;49.468;11.044;2023-04-27T03:02:21;5.10;;;2.73;;
20705;SDS011;10514;49.468;11.044;2023-04-27T03:04:50;5.57;;;3.10;;
20705;SDS011;10514;49.468;11.044;2023-04-27T03:07:17;6.13;;;3.20;;
20705;SDS011;10514;49.468;11.044;2023-04-27T03:09:43;8.13;;;3.60;;
20705;SDS011;10514;49.468;11.044;2023-04-27T03:12:09;7.67;;;3.17;;
20705;SDS011;10514;49.468;11.044;2023-04-27T03:14:35;5.73;;;2.57;;
20705;SDS011;10514;49.468;11.044;2023-04-27T03:17:01;5.30;;;3.10;;
20705;SDS011;10514;49.468;11.044;2023-04-27T03:19:27;5.50;;;3.20;;
20705;SDS011;10514;49.468;11.044;2023-04-27T03:21:53;10.40;;;2.90;;
20705;SDS011;10514;49.468;11.044;2023-04-27T03:24:19;6.07;;;2.73;;
20705;SDS011;10514;49.468;11.044;2023-04-27T03:26:45;5.73;;;3.10;;
20705;SDS011;10514;49.468;11.044;2023-04-27T03:29:11;5.93;;;3.27;;
20705;SDS011;10514;49.468;11.044;2023-04-27T03:31:37;8.43;;;2.93;;
20705;SDS011;10514;49.468;11.044;2023-04-27T03:34:03;5.50;;;3.27;;
20705;SDS011;10514;49.468;11.044;2023-04-27T03:36:29;7.60;;;4.07;;
20705;SDS011;10514;49.468;11.044;2023-04-27T03:38:56;11.30;;;5.23;;
20705;SDS011;10514;49.468;11.044;2023-04-27T03:41:22;9.13;;;4.67;;
20705;SDS011;10514;49.468;11.044;2023-04-27T03:43:47;10.03;;;4.17;;
20705;SDS011;10514;49.468;11.044;2023-04-27T03:46:16;10.70;;;4.13;;
20705;SDS011;10514;49.468;11.044;2023-04-27T03:48:42;9.20;;;3.87;;
20705;SDS011;10514;49.468;11.044;2023-04-27T03:51:08;8.80;;;3.77;;
20705;SDS011;10514;49.468;11.044;2023-04-27T03:53:34;11.30;;;3.77;;
20705;SDS011;10514;49.468;11.044;2023-04-27T03:56:00;7.57;;;3.93;;
20705;SDS011;10514;49.468;11.044;2023-04-27T03:58:27;6.90;;;3.90;;
20705;SDS011;10514;49.468;11.044;2023-04-27T04:00:53;8.77;;;4.20;;
20705;SDS011;10514;49.468;11.044;2023-04-27T04:03:19;7.77;;;4.83;;
20705;SDS011;10514;49.468;11.044;2023-04-27T04:05:45;9.97;;;4.73;;
20705;SDS011;10514;49.468;11.044;2023-04-27T04:08:12;8.70;;;4.83;;
20705;SDS011;10514;49.468;11.044;2023-04-27T04:10:37;8.47;;;4.47;;
20705;SDS011;10514;49.468;11.044;2023-04-27T04:13:03;8.03;;;4.27;;
20705;SDS011;10514;49.468;11.044;2023-04-27T04:15:29;11.77;;;4.40;;
20705;SDS011;10514;49.468;11.044;2023-04-27T04:17:55;10.87;;;5.20;;
20705;SDS011;10514;49.468;11.044;2023-04-27T04:20:21;6.63;;;4.70;;
20705;SDS011;10514;49.468;11.044;2023-04-27T04:22:47;7.47;;;4.20;;
20705;SDS011;10514;49.468;11.044;2023-04-27T04:25:13;7.37;;;4.43;;
20705;SDS011;10514;49.468;11.044;2023-04-27T04:27:39;28.23;;;11.10;;
20705;SDS011;10514;49.468;11.044;2023-04-27T04:30:06;29.93;;;14.27;;
20705;SDS011;10514;49.468;11.044;2023-04-27T04:32:32;33.83;;;14.47;;
20705;SDS011;10514;49.468;11.044;2023-04-27T04:35:01;33.50;;;14.03;;
20705;SDS011;10514;49.468;11.044;2023-04-27T04:37:28;25.60;;;12.30;;
20705;SDS011;10514;49.468;11.044;2023-04-27T04:39:55;16.03;;;8.60;;
20705;SDS011;10514;49.468;11.044;2023-04-27T04:42:21;13.17;;;5.83;;
20705;SDS011;10514;49.468;11.044;2023-04-27T04:44:47;7.63;;;3.83;;
20705;SDS011;10514;49.468;11.044;2023-04-27T04:47:13;6.97;;;3.63;;
20705;SDS011;10514;49.468;11.044;2023-04-27T04:49:39;10.97;;;3.97;;
20705;SDS011;10514;49.468;11.044;2023-04-27T04:52:05;6.20;;;3.40;;
20705;SDS011;10514;49.468;11.044;2023-04-27T04:54:32;12.70;;;4.47;;
20705;SDS011;10514;49.468;11.044;2023-04-27T04:56:58;14.97;;;4.90;;
20705;SDS011;10514;49.468;11.044;2023-04-27T04:59:25;7.50;;;3.60;;
20705;SDS011;10514;49.468;11.044;2023-04-27T05:01:51;11.33;;;3.07;;
20705;SDS011;10514;49.468;11.044;2023-04-27T05:04:19;13.33;;;5.50;;
20705;SDS011;10514;49.468;11.044;2023-04-27T05:06:45;18.20;;;8.80;;
20705;SDS011;10514;49.468;11.044;2023-04-27T05:09:11;11.90;;;6.50;;
20705;SDS011;10514;49.468;11.044;2023-04-27T05:11:37;25.87;;;14.27;;
20705;SDS011;10514;49.468;11.044;2023-04-27T05:14:03;19.43;;;9.70;;
20705;SDS011;10514;49.468;11.044;2023-04-27T05:16:29;21.90;;;11.63;;
20705;SDS011;10514;49.468;11.044;2023-04-27T05:18:55;18.10;;;8.23;;
20705;SDS011;10514;49.468;11.044;2023-04-27T05:21:21;21.50;;;10.57;;
20705;SDS011;10514;49.468;11.044;2023-04-27T05:23:47;14.77;;;8.07;;
20705;SDS011;10514;49.468;11.044;2023-04-27T05:26:14;10.63;;;5.20;;
20705;SDS011;10514;49.468;11.044;2023-04-27T05:28:40;8.73;;;5.33;;
20705;SDS011;10514;49.468;11.044;2023-04-27T05:31:06;9.63;;;5.13;;
20705;SDS011;10514;49.468;11.044;2023-04-27T05:33:32;33.60;;;12.40;;
20705;SDS011;10514;49.468;11.044;2023-04-27T05:35:58;16.63;;;7.23;;
20705;SDS011;10514;49.468;11.044;2023-04-27T05:38:24;7.70;;;4.13;;
20705;SDS011;10514;49.468;11.044;2023-04-27T05:40:54;8.60;;;4.50;;
20705;SDS011;10514;49.468;11.044;2023-04-27T05:43:20;11.20;;;4.70;;
20705;SDS011;10514;49.468;11.044;2023-04-27T05:45:46;6.97;;;4.73;;
20705;SDS011;10514;49.468;11.044;2023-04-27T05:48:12;8.33;;;4.60;;
20705;SDS011;10514;49.468;11.044;2023-04-27T05:50:38;10.17;;;3.57;;
20705;SDS011;10514;49.468;11.044;2023-04-27T05:53:04;11.47;;;4.60;;
20705;SDS011;10514;49.468;11.044;2023-04-27T05:55:30;8.90;;;3.50;;
20705;SDS011;10514;49.468;11.044;2023-04-27T05:57:57;7.00;;;3.90;;
20705;SDS011;10514;49.468;11.044;2023-04-27T06:00:22;7.97;;;4.50;;
20705;SDS011;10514;49.468;11.044;2023-04-27T06:02:49;7.30;;;2.90;;
20705;SDS011;10514;49.468;11.044;2023-04-27T06:05:15;8.87;;;2.40;;
20705;SDS011;10514;49.468;11.044;2023-04-27T06:07:41;7.37;;;3.07;;
20705;SDS011;10514;49.468;11.044;2023-04-27T06:10:08;7.03;;;3.27;;
20705;SDS011;10514;49.468;11.044;2023-04-27T06:12:34;7.27;;;3.20;;
20705;SDS011;10514;49.468;11.044;2023-04-27T06:15:00;10.10;;;5.00;;
20705;SDS011;10514;49.468;11.044;2023-04-27T06:17:27;9.80;;;4.30;;
20705;SDS011;10514;49.468;11.044;2023-04-27T06:19:53;8.00;;;3.87;;
20705;SDS011;10514;49.468;11.044;2023-04-27T06:22:20;8.80;;;3.73;;
20705;SDS011;10514;49.468;11.044;2023-04-27T06:24:46;7.33;;;3.07;;
20705;SDS011;10514;49.468;11.044;2023-04-27T06:27:11;8.00;;;2.72;;
20705;SDS011;10514;49.468;11.044;2023-04-27T06:29:38;6.97;;;3.17;;
20705;SDS011;10514;49.468;11.044;2023-04-27T06:32:03;5.50;;;2.35;;
20705;SDS011;10514;49.468;11.044;2023-04-27T06:34:31;4.25;;;2.13;;
20705;SDS011;10514;49.468;11.044;2023-04-27T06:36:57;4.28;;;2.50;;
20705;SDS011;10514;49.468;11.044;2023-04-27T06:39:23;8.75;;;3.00;;
20705;SDS011;10514;49.468;11.044;2023-04-27T06:41:48;6.50;;;2.65;;
20705;SDS011;10514;49.468;11.044;2023-04-27T06:44:14;7.95;;;2.80;;
20705;SDS011;10514;49.468;11.044;2023-04-27T06:46:40;4.65;;;2.70;;
20705;SDS011;10514;49.468;11.044;2023-04-27T06:49:06;7.22;;;2.60;;
20705;SDS011;10514;49.468;11.044;2023-04-27T06:51:32;4.32;;;2.78;;
20705;SDS011;10514;49.468;11.044;2023-04-27T06:53:58;5.38;;;2.40;;
20705;SDS011;10514;49.468;11.044;2023-04-27T06:56:24;11.98;;;2.58;;
20705;SDS011;10514;49.468;11.044;2023-04-27T06:58:50;6.88;;;2.80;;
20705;SDS011;10514;49.468;11.044;2023-04-27T07:01:16;6.45;;;2.97;;
20705;SDS011;10514;49.468;11.044;2023-04-27T07:03:42;5.78;;;2.55;;
20705;SDS011;10514;49.468;11.044;2023-04-27T07:06:08;5.68;;;2.22;;
20705;SDS011;10514;49.468;11.044;2023-04-27T07:08:34;9.45;;;2.97;;
20705;SDS011;10514;49.468;11.044;2023-04-27T07:11:01;9.80;;;2.28;;
20705;SDS011;10514;49.468;11.044;2023-04-27T07:13:27;8.25;;;3.05;;
20705;SDS011;10514;49.468;11.044;2023-04-27T07:15:54;5.40;;;2.75;;
20705;SDS011;10514;49.468;11.044;2023-04-27T07:18:24;3.92;;;2.15;;
20705;SDS011;10514;49.468;11.044;2023-04-27T07:20:52;6.10;;;2.10;;
20705;SDS011;10514;49.468;11.044;2023-04-27T07:23:18;4.57;;;1.90;;
20705;SDS011;10514;49.468;11.044;2023-04-27T07:25:44;9.98;;;2.22;;
20705;SDS011;10514;49.468;11.044;2023-04-27T07:28:11;7.32;;;2.22;;
20705;SDS011;10514;49.468;11.044;2023-04-27T07:30:37;6.45;;;2.60;;
20705;SDS011;10514;49.468;11.044;2023-04-27T07:33:03;11.65;;;2.63;;
20705;SDS011;10514;49.468;11.044;2023-04-27T07:35:31;8.40;;;2.55;;
20705;SDS011;10514;49.468;11.044;2023-04-27T07:37:58;3.22;;;2.10;;
20705;SDS011;10514;49.468;11.044;2023-04-27T07:40:28;5.45;;;2.40;;
20705;SDS011;10514;49.468;11.044;2023-04-27T07:42:54;5.85;;;2.67;;
20705;SDS011;10514;49.468;11.044;2023-04-27T07:45:22;5.47;;;2.35;;
20705;SDS011;10514;49.468;11.044;2023-04-27T07:47:55;8.00;;;2.70;;
20705;SDS011;10514;49.468;11.044;2023-04-27T07:50:22;6.30;;;2.60;;
20705;SDS011;10514;49.468;11.044;2023-04-27T07:52:49;6.20;;;2.33;;
20705;SDS011;10514;49.468;11.044;2023-04-27T07:55:15;5.57;;;2.35;;
20705;SDS011;10514;49.468;11.044;2023-04-27T07:57:41;4.28;;;1.98;;
20705;SDS011;10514;49.468;11.044;2023-04-27T08:00:07;2.85;;;2.00;;
20705;SDS011;10514;49.468;11.044;2023-04-27T08:02:35;8.23;;;2.33;;
20705;SDS011;10514;49.468;11.044;2023-04-27T08:05:01;9.82;;;2.75;;
20705;SDS011;10514;49.468;11.044;2023-04-27T08:07:27;8.07;;;2.90;;
20705;SDS011;10514;49.468;11.044;2023-04-27T08:09:53;5.50;;;2.60;;
20705;SDS011;10514;49.468;11.044;2023-04-27T08:12:19;3.30;;;2.35;;
20705;SDS011;10514;49.468;11.044;2023-04-27T08:14:45;6.70;;;2.95;;
20705;SDS011;10514;49.468;11.044;2023-04-27T08:17:11;6.32;;;2.78;;
20705;SDS011;10514;49.468;11.044;2023-04-27T08:19:37;5.82;;;2.65;;
20705;SDS011;10514;49.468;11.044;2023-04-27T08:22:03;8.32;;;3.38;;
20705;SDS011;10514;49.468;11.044;2023-04-27T08:24:29;4.70;;;2.70;;
20705;SDS011;10514;49.468;11.044;2023-04-27T08:26:55;8.43;;;3.10;;
20705;SDS011;10514;49.468;11.044;2023-04-27T08:29:21;6.45;;;3.05;;
20705;SDS011;10514;49.468;11.044;2023-04-27T08:31:47;10.02;;;3.40;;
20705;SDS011;10514;49.468;11.044;2023-04-27T08:34:13;6.25;;;2.92;;
20705;SDS011;10514;49.468;11.044;2023-04-27T08:36:39;7.55;;;2.97;;
20705;SDS011;10514;49.468;11.044;2023-04-27T08:39:05;7.90;;;2.88;;
20705;SDS011;10514;49.468;11.044;2023-04-27T08:41:32;7.18;;;3.78;;
20705;SDS011;10514;49.468;11.044;2023-04-27T08:43:58;7.85;;;3.47;;
20705;SDS011;10514;49.468;11.044;2023-04-27T08:46:24;6.47;;;3.08;;
20705;SDS011;10514;49.468;11.044;2023-04-27T08:48:55;9.85;;;3.42;;
20705;SDS011;10514;49.468;11.044;2023-04-27T08:51:21;5.63;;;3.05;;
20705;SDS011;10514;49.468;11.044;2023-04-27T08:53:50;7.20;;;3.05;;
20705;SDS011;10514;49.468;11.044;2023-04-27T08:56:17;7.40;;;3.47;;
20705;SDS011;10514;49.468;11.044;2023-04-27T08:58:43;7.30;;;2.92;;
20705;SDS011;10514;49.468;11.044;2023-04-27T09:01:09;16.10;;;4.53;;
20705;SDS011;10514;49.468;11.044;2023-04-27T09:03:36;9.95;;;4.10;;
20705;SDS011;10514;49.468;11.044;2023-04-27T09:06:03;12.98;;;3.67;;
20705;SDS011;10514;49.468;11.044;2023-04-27T09:08:42;10.55;;;4.10;;
20705;SDS011;10514;49.468;11.044;2023-04-27T09:11:08;9.85;;;3.63;;
20705;SDS011;10514;49.468;11.044;2023-04-27T09:13:35;7.78;;;3.97;;
20705;SDS011;10514;49.468;11.044;2023-04-27T09:16:02;7.65;;;3.47;;
20705;SDS011;10514;49.468;11.044;2023-04-27T09:18:28;8.20;;;3.58;;
20705;SDS011;10514;49.468;11.044;2023-04-27T09:20:57;8.57;;;3.55;;
20705;SDS011;10514;49.468;11.044;2023-04-27T09:23:24;8.73;;;3.97;;
20705;SDS011;10514;49.468;11.044;2023-04-27T09:25:51;8.85;;;3.78;;
20705;SDS011;10514;49.468;11.044;2023-04-27T09:28:18;12.52;;;3.80;;
20705;SDS011;10514;49.468;11.044;2023-04-27T09:30:50;8.35;;;3.95;;
20705;SDS011;10514;49.468;11.044;2023-04-27T09:33:21;9.07;;;3.90;;
20705;SDS011;10514;49.468;11.044;2023-04-27T09:35:48;7.60;;;3.90;;
20705;SDS011;10514;49.468;11.044;2023-04-27T09:38:14;5.97;;;3.72;;
20705;SDS011;10514;49.468;11.044;2023-04-27T09:40:41;7.28;;;3.35;;
20705;SDS011;10514;49.468;11.044;2023-04-27T09:43:07;8.65;;;3.80;;
20705;SDS011;10514;49.468;11.044;2023-04-27T09:45:34;6.15;;;3.38;;
20705;SDS011;10514;49.468;11.044;2023-04-27T09:48:01;6.93;;;3.28;;
20705;SDS011;10514;49.468;11.044;2023-04-27T09:50:29;7.50;;;4.03;;
20705;SDS011;10514;49.468;11.044;2023-04-27T09:52:55;8.82;;;3.60;;
20705;SDS011;10514;49.468;11.044;2023-04-27T09:55:26;8.77;;;3.92;;
20705;SDS011;10514;49.468;11.044;2023-04-27T10:04:01;7.05;;;3.78;;
20705;SDS011;10514;49.468;11.044;2023-04-27T10:06:58;8.77;;;3.60;;
20705;SDS011;10514;49.468;11.044;2023-04-27T10:09:40;6.72;;;3.58;;
20705;SDS011;10514;49.468;11.044;2023-04-27T10:12:15;7.47;;;3.95;;
20705;SDS011;10514;49.468;11.044;2023-04-27T10:14:49;7.95;;;3.92;;
20705;SDS011;10514;49.468;11.044;2023-04-27T10:17:29;7.07;;;4.00;;
20705;SDS011;10514;49.468;11.044;2023-04-27T10:19:57;9.57;;;3.08;;
20705;SDS011;10514;49.468;11.044;2023-04-27T10:25:14;8.77;;;3.85;;
20705;SDS011;10514;49.468;11.044;2023-04-27T10:27:53;7.78;;;2.88;;
20705;SDS011;10514;49.468;11.044;2023-04-27T10:30:30;5.68;;;2.45;;
20705;SDS011;10514;49.468;11.044;2023-04-27T10:33:04;4.47;;;2.80;;
20705;SDS011;10514;49.468;11.044;2023-04-27T10:35:38;6.72;;;2.88;;
20705;SDS011;10514;49.468;11.044;2023-04-27T10:38:13;6.18;;;3.10;;
20705;SDS011;10514;49.468;11.044;2023-04-27T10:40:45;4.88;;;2.90;;
20705;SDS011;10514;49.468;11.044;2023-04-27T10:43:22;7.97;;;3.35;;
20705;SDS011;10514;49.468;11.044;2023-04-27T10:45:49;9.98;;;2.92;;
20705;SDS011;10514;49.468;11.044;2023-04-27T10:48:15;4.63;;;2.28;;
20705;SDS011;10514;49.468;11.044;2023-04-27T10:50:41;7.55;;;3.28;;
20705;SDS011;10514;49.468;11.044;2023-04-27T10:53:13;4.70;;;2.67;;
20705;SDS011;10514;49.468;11.044;2023-04-27T10:55:40;8.95;;;2.83;;
20705;SDS011;10514;49.468;11.044;2023-04-27T10:58:06;5.43;;;3.17;;
20705;SDS011;10514;49.468;11.044;2023-04-27T11:00:37;5.28;;;3.05;;
20705;SDS011;10514;49.468;11.044;2023-04-27T11:03:15;8.82;;;3.33;;
20705;SDS011;10514;49.468;11.044;2023-04-27T11:05:44;7.88;;;3.30;;
20705;SDS011;10514;49.468;11.044;2023-04-27T11:08:11;5.90;;;3.33;;
20705;SDS011;10514;49.468;11.044;2023-04-27T11:10:45;6.78;;;2.63;;
20705;SDS011;10514;49.468;11.044;2023-04-27T11:13:14;8.55;;;3.28;;
20705;SDS011;10514;49.468;11.044;2023-04-27T11:15:48;10.75;;;4.05;;
20705;SDS011;10514;49.468;11.044;2023-04-27T11:18:15;9.10;;;3.88;;
20705;SDS011;10514;49.468;11.044;2023-04-27T11:20:42;8.02;;;3.47;;
20705;SDS011;10514;49.468;11.044;2023-04-27T11:23:27;7.53;;;3.53;;
20705;SDS011;10514;49.468;11.044;2023-04-27T11:25:56;8.35;;;3.08;;
20705;SDS011;10514;49.468;11.044;2023-04-27T11:28:22;9.18;;;3.30;;
20705;SDS011;10514;49.468;11.044;2023-04-27T11:30:58;8.27;;;3.08;;
20705;SDS011;10514;49.468;11.044;2023-04-27T11:33:24;4.80;;;3.00;;
20705;SDS011;10514;49.468;11.044;2023-04-27T11:35:51;4.30;;;3.50;;
20705;SDS011;10514;49.468;11.044;2023-04-27T11:38:18;8.18;;;2.90;;
20705;SDS011;10514;49.468;11.044;2023-04-27T11:41:00;4.30;;;3.22;;
20705;SDS011;10514;49.468;11.044;2023-04-27T11:43:30;5.00;;;2.95;;
20705;SDS011;10514;49.468;11.044;2023-04-27T11:45:56;6.40;;;3.47;;
20705;SDS011;10514;49.468;11.044;2023-04-27T11:48:23;8.25;;;3.53;;
20705;SDS011;10514;49.468;11.044;2023-04-27T11:50:49;9.05;;;3.50;;
20705;SDS011;10514;49.468;11.044;2023-04-27T11:53:17;5.05;;;3.50;;
20705;SDS011;10514;49.468;11.044;2023-04-27T11:55:54;6.25;;;3.50;;
20705;SDS011;10514;49.468;11.044;2023-04-27T11:58:20;6.88;;;3.72;;
20705;SDS011;10514;49.468;11.044;2023-04-27T12:00:46;6.97;;;3.78;;
20705;SDS011;10514;49.468;11.044;2023-04-27T12:03:11;5.57;;;3.60;;
20705;SDS011;10514;49.468;11.044;2023-04-27T12:05:46;6.30;;;3.95;;
20705;SDS011;10514;49.468;11.044;2023-04-27T12:08:12;5.70;;;4.00;;
20705;SDS011;10514;49.468;11.044;2023-04-27T12:10:39;10.30;;;3.97;;
20705;SDS011;10514;49.468;11.044;2023-04-27T12:13:04;6.90;;;3.72;;
20705;SDS011;10514;49.468;11.044;2023-04-27T12:15:31;6.43;;;3.50;;
20705;SDS011;10514;49.468;11.044;2023-04-27T12:17:57;9.25;;;4.38;;
20705;SDS011;10514;49.468;11.044;2023-04-27T12:20:23;6.43;;;2.90;;
20705;SDS011;10514;49.468;11.044;2023-04-27T12:22:49;8.40;;;3.97;;
20705;SDS011;10514;49.468;11.044;2023-04-27T12:25:15;6.18;;;3.03;;
20705;SDS011;10514;49.468;11.044;2023-04-27T12:27:42;5.38;;;2.83;;
20705;SDS011;10514;49.468;11.044;2023-04-27T12:30:11;5.78;;;3.45;;
20705;SDS011;10514;49.468;11.044;2023-04-27T12:32:38;6.28;;;3.20;;
20705;SDS011;10514;49.468;11.044;2023-04-27T12:35:05;6.40;;;3.25;;
20705;SDS011;10514;49.468;11.044;2023-04-27T12:37:31;8.40;;;3.50;;
20705;SDS011;10514;49.468;11.044;2023-04-27T12:39:57;10.05;;;2.80;;
20705;SDS011;10514;49.468;11.044;2023-04-27T12:42:23;6.95;;;2.83;;
20705;SDS011;10514;49.468;11.044;2023-04-27T12:44:49;4.93;;;3.15;;
20705;SDS011;10514;49.468;11.044;2023-04-27T12:47:20;6.43;;;3.50;;
20705;SDS011;10514;49.468;11.044;2023-04-27T12:49:45;6.65;;;3.33;;
20705;SDS011;10514;49.468;11.044;2023-04-27T12:52:11;5.78;;;3.20;;
20705;SDS011;10514;49.468;11.044;2023-04-27T12:54:38;8.60;;;3.13;;
20705;SDS011;10514;49.468;11.044;2023-04-27T12:57:03;3.80;;;3.10;;
20705;SDS011;10514;49.468;11.044;2023-04-27T12:59:32;8.57;;;3.85;;
20705;SDS011;10514;49.468;11.044;2023-04-27T13:02:02;7.28;;;3.60;;
20705;SDS011;10514;49.468;11.044;2023-04-27T13:04:28;7.10;;;4.03;;
20705;SDS011;10514;49.468;11.044;2023-04-27T13:06:55;6.00;;;3.53;;
20705;SDS011;10514;49.468;11.044;2023-04-27T13:09:23;9.65;;;3.28;;
20705;SDS011;10514;49.468;11.044;2023-04-27T13:11:49;5.60;;;3.20;;
20705;SDS011;10514;49.468;11.044;2023-04-27T13:14:16;5.80;;;3.38;;
20705;SDS011;10514;49.468;11.044;2023-04-27T13:16:42;8.02;;;4.20;;
20705;SDS011;10514;49.468;11.044;2023-04-27T13:19:08;4.63;;;3.10;;
20705;SDS011;10514;49.468;11.044;2023-04-27T13:21:34;6.53;;;3.08;;
20705;SDS011;10514;49.468;11.044;2023-04-27T13:24:00;5.15;;;3.00;;
20705;SDS011;10514;49.468;11.044;2023-04-27T13:26:26;6.93;;;2.95;;
20705;SDS011;10514;49.468;11.044;2023-04-27T13:28:52;6.15;;;3.05;;
20705;SDS011;10514;49.468;11.044;2023-04-27T13:31:18;14.85;;;3.28;;
20705;SDS011;10514;49.468;11.044;2023-04-27T13:33:44;7.63;;;3.30;;
20705;SDS011;10514;49.468;11.044;2023-04-27T13:36:10;12.23;;;3.35;;
20705;SDS011;10514;49.468;11.044;2023-04-27T13:38:36;35.55;;;4.20;;
20705;SDS011;10514;49.468;11.044;2023-04-27T13:41:02;4.20;;;2.83;;
20705;SDS011;10514;49.468;11.044;2023-04-27T13:43:28;6.60;;;3.08;;
20705;SDS011;10514;49.468;11.044;2023-04-27T13:45:55;4.60;;;2.78;;
20705;SDS011;10514;49.468;11.044;2023-04-27T13:48:22;6.28;;;2.80;;
20705;SDS011;10514;49.468;11.044;2023-04-27T13:50:49;6.38;;;2.92;;
20705;SDS011;10514;49.468;11.044;2023-04-27T13:53:15;5.30;;;3.00;;
20705;SDS011;10514;49.468;11.044;2023-04-27T13:55:41;5.90;;;2.60;;
20705;SDS011;10514;49.468;11.044;2023-04-27T13:58:07;6.65;;;2.55;;
20705;SDS011;10514;49.468;11.044;2023-04-27T14:00:34;8.30;;;3.72;;
20705;SDS011;10514;49.468;11.044;2023-04-27T14:03:01;5.13;;;3.00;;
20705;SDS011;10514;49.468;11.044;2023-04-27T14:05:28;6.75;;;2.80;;
20705;SDS011;10514;49.468;11.044;2023-04-27T14:07:54;7.47;;;2.70;;
20705;SDS011;10514;49.468;11.044;2023-04-27T14:10:23;13.35;;;2.85;;
20705;SDS011;10514;49.468;11.044;2023-04-27T14:12:49;5.85;;;3.58;;
20705;SDS011;10514;49.468;11.044;2023-04-27T14:15:15;7.03;;;3.50;;
20705;SDS011;10514;49.468;11.044;2023-04-27T14:17:41;6.03;;;3.33;;
20705;SDS011;10514;49.468;11.044;2023-04-27T14:20:07;10.30;;;4.38;;
20705;SDS011;10514;49.468;11.044;2023-04-27T14:22:33;10.48;;;3.63;;
20705;SDS011;10514;49.468;11.044;2023-04-27T14:25:00;5.63;;;3.00;;
20705;SDS011;10514;49.468;11.044;2023-04-27T14:27:25;4.95;;;3.30;;
20705;SDS011;10514;49.468;11.044;2023-04-27T14:29:51;3.83;;;3.17;;
20705;SDS011;10514;49.468;11.044;2023-04-27T14:32:17;5.63;;;2.88;;
20705;SDS011;10514;49.468;11.044;2023-04-27T14:34:43;6.47;;;3.72;;
20705;SDS011;10514;49.468;11.044;2023-04-27T14:37:09;6.53;;;3.70;;
20705;SDS011;10514;49.468;11.044;2023-04-27T14:39:35;4.07;;;2.92;;
20705;SDS011;10514;49.468;11.044;2023-04-27T14:42:01;5.47;;;2.97;;